sensor_id;sensor_type;location;lat;lon;timestamp;temperature;humidity
48488;DHT22;34289;48.572;13.378;2023-04-04T00:01:18;2.70;99.90
48488;DHT22;34289;48.572;13.378;2023-04-04T00:03:44;2.70;99.90
48488;DHT22;34289;48.572;13.378;2023-04-04T00:06:09;2.60;99.90
48488;DHT22;34289;48.572;13.378;2023-04-04T00:08:35;2.60;99.90
48488;DHT22;34289;48.572;13.378;2023-04-04T00:11:01;3.00;99.90
48488;DHT22;34289;48.572;13.378;2023-04-04T00:13:27;2.50;99.90
48488;DHT22;34289;48.572;13.378;2023-04-04T00:15:53;2.50;99.90
48488;DHT22;34289;48.572;13.378;2023-04-04T00:18:19;2.50;99.90
48488;DHT22;34289;48.572;13.378;2023-04-04T00:20:45;2.50;99.90
48488;DHT22;34289;48.572;13.378;2023-04-04T00:23:10;2.50;99.90
48488;DHT22;34289;48.572;13.378;2023-04-04T00:25:36;2.70;99.90
48488;DHT22;34289;48.572;13.378;2023-04-04T00:28:02;2.40;99.90
48488;DHT22;34289;48.572;13.378;2023-04-04T00:30:31;2.40;99.90
48488;DHT22;34289;48.572;13.378;2023-04-04T00:32:58;2.80;99.90
48488;DHT22;34289;48.572;13.378;2023-04-04T00:35:26;2.90;99.90
48488;DHT22;34289;48.572;13.378;2023-04-04T00:37:51;2.30;99.90
48488;DHT22;34289;48.572;13.378;2023-04-04T00:40:17;2.30;99.90
48488;DHT22;34289;48.572;13.378;2023-04-04T00:42:43;2.30;99.90
48488;DHT22;34289;48.572;13.378;2023-04-04T00:45:09;2.30;99.90
48488;DHT22;34289;48.572;13.378;2023-04-04T00:47:36;2.30;99.90
48488;DHT22;34289;48.572;13.378;2023-04-04T00:50:02;2.20;99.90
48488;DHT22;34289;48.572;13.378;2023-04-04T00:52:28;2.20;99.90
48488;DHT22;34289;48.572;13.378;2023-04-04T00:54:55;2.20;99.90
48488;DHT22;34289;48.572;13.378;2023-04-04T00:57:21;2.10;99.90
48488;DHT22;34289;48.572;13.378;2023-04-04T00:59:47;2.20;99.90
48488;DHT22;34289;48.572;13.378;2023-04-04T01:02:13;2.20;99.90
48488;DHT22;34289;48.572;13.378;2023-04-04T01:04:38;2.10;99.90
48488;DHT22;34289;48.572;13.378;2023-04-04T01:07:04;2.10;99.90
48488;DHT22;34289;48.572;13.378;2023-04-04T01:09:30;2.10;99.90
48488;DHT22;34289;48.572;13.378;2023-04-04T01:11:56;2.10;99.90
48488;DHT22;34289;48.572;13.378;2023-04-04T01:14:22;3.00;99.90
48488;DHT22;34289;48.572;13.378;2023-04-04T01:16:51;2.00;99.90
48488;DHT22;34289;48.572;13.378;2023-04-04T01:19:23;2.00;99.90
48488;DHT22;34289;48.572;13.378;2023-04-04T01:21:52;1.90;99.90
48488;DHT22;34289;48.572;13.378;2023-04-04T01:24:20;1.80;99.90
48488;DHT22;34289;48.572;13.378;2023-04-04T01:26:49;1.80;99.90
48488;DHT22;34289;48.572;13.378;2023-04-04T01:29:15;1.80;99.90
48488;DHT22;34289;48.572;13.378;2023-04-04T01:31:43;1.70;99.90
48488;DHT22;34289;48.572;13.378;2023-04-04T01:40:19;1.60;99.90
48488;DHT22;34289;48.572;13.378;2023-04-04T01:42:46;1.60;99.90
48488;DHT22;34289;48.572;13.378;2023-04-04T01:45:13;1.60;99.90
48488;DHT22;34289;48.572;13.378;2023-04-04T01:47:40;3.80;99.90
48488;DHT22;34289;48.572;13.378;2023-04-04T01:50:09;1.60;99.90
48488;DHT22;34289;48.572;13.378;2023-04-04T01:52:39;1.60;99.90
48488;DHT22;34289;48.572;13.378;2023-04-04T01:55:04;1.50;99.90
48488;DHT22;34289;48.572;13.378;2023-04-04T01:57:30;1.60;99.90
48488;DHT22;34289;48.572;13.378;2023-04-04T01:59:56;1.60;99.90
48488;DHT22;34289;48.572;13.378;2023-04-04T02:02:21;1.50;99.90
48488;DHT22;34289;48.572;13.378;2023-04-04T02:04:47;2.60;99.90
48488;DHT22;34289;48.572;13.378;2023-04-04T02:07:13;1.50;99.90
48488;DHT22;34289;48.572;13.378;2023-04-04T02:09:39;1.50;99.90
48488;DHT22;34289;48.572;13.378;2023-04-04T02:12:06;1.50;99.90
48488;DHT22;34289;48.572;13.378;2023-04-04T02:14:32;1.50;99.90
48488;DHT22;34289;48.572;13.378;2023-04-04T02:16:58;1.50;99.90
48488;DHT22;34289;48.572;13.378;2023-04-04T02:19:24;1.50;99.90
48488;DHT22;34289;48.572;13.378;2023-04-04T02:21:50;1.80;99.90
48488;DHT22;34289;48.572;13.378;2023-04-04T02:24:16;1.50;99.90
48488;DHT22;34289;48.572;13.378;2023-04-04T02:26:41;1.50;99.90
48488;DHT22;34289;48.572;13.378;2023-04-04T02:29:07;2.10;99.90
48488;DHT22;34289;48.572;13.378;2023-04-04T02:31:33;1.50;99.90
48488;DHT22;34289;48.572;13.378;2023-04-04T02:33:59;1.60;99.90
48488;DHT22;34289;48.572;13.378;2023-04-04T02:36:25;1.50;99.90
48488;DHT22;34289;48.572;13.378;2023-04-04T02:38:50;1.60;99.90
48488;DHT22;34289;48.572;13.378;2023-04-04T02:41:16;1.50;99.90
48488;DHT22;34289;48.572;13.378;2023-04-04T02:43:42;1.60;99.90
48488;DHT22;34289;48.572;13.378;2023-04-04T02:46:07;1.60;99.90
48488;DHT22;34289;48.572;13.378;2023-04-04T02:48:33;1.50;99.90
48488;DHT22;34289;48.572;13.378;2023-04-04T02:50:59;1.50;99.90
48488;DHT22;34289;48.572;13.378;2023-04-04T02:53:24;1.50;99.90
48488;DHT22;34289;48.572;13.378;2023-04-04T02:55:50;1.50;99.90
48488;DHT22;34289;48.572;13.378;2023-04-04T02:58:16;1.50;99.90
48488;DHT22;34289;48.572;13.378;2023-04-04T03:00:41;1.50;99.90
48488;DHT22;34289;48.572;13.378;2023-04-04T03:03:07;1.50;99.90
48488;DHT22;34289;48.572;13.378;2023-04-04T03:05:32;2.50;99.90
48488;DHT22;34289;48.572;13.378;2023-04-04T03:07:58;1.50;99.90
48488;DHT22;34289;48.572;13.378;2023-04-04T03:10:25;1.40;99.90
48488;DHT22;34289;48.572;13.378;2023-04-04T03:12:51;1.30;99.90
48488;DHT22;34289;48.572;13.378;2023-04-04T03:15:17;1.30;99.90
48488;DHT22;34289;48.572;13.378;2023-04-04T03:17:43;1.30;99.90
48488;DHT22;34289;48.572;13.378;2023-04-04T03:20:10;1.30;99.90
48488;DHT22;34289;48.572;13.378;2023-04-04T03:22:36;1.20;99.90
48488;DHT22;34289;48.572;13.378;2023-04-04T03:25:02;1.30;99.90
48488;DHT22;34289;48.572;13.378;2023-04-04T03:27:30;1.30;99.90
48488;DHT22;34289;48.572;13.378;2023-04-04T03:29:57;1.30;99.90
48488;DHT22;34289;48.572;13.378;2023-04-04T03:32:24;1.40;99.90
48488;DHT22;34289;48.572;13.378;2023-04-04T03:34:50;1.40;99.90
48488;DHT22;34289;48.572;13.378;2023-04-04T03:37:16;1.40;99.90
48488;DHT22;34289;48.572;13.378;2023-04-04T03:39:42;1.50;99.90
48488;DHT22;34289;48.572;13.378;2023-04-04T03:42:08;1.50;99.90
48488;DHT22;34289;48.572;13.378;2023-04-04T03:44:33;1.50;99.90
48488;DHT22;34289;48.572;13.378;2023-04-04T03:47:01;1.50;99.90
48488;DHT22;34289;48.572;13.378;2023-04-04T03:49:26;1.40;99.90
48488;DHT22;34289;48.572;13.378;2023-04-04T03:51:52;1.40;99.90
48488;DHT22;34289;48.572;13.378;2023-04-04T03:54:17;3.80;99.90
48488;DHT22;34289;48.572;13.378;2023-04-04T03:56:43;1.40;99.90
48488;DHT22;34289;48.572;13.378;2023-04-04T03:59:09;2.50;99.90
48488;DHT22;34289;48.572;13.378;2023-04-04T04:01:35;1.50;99.90
48488;DHT22;34289;48.572;13.378;2023-04-04T04:04:00;1.40;99.90
48488;DHT22;34289;48.572;13.378;2023-04-04T04:06:26;2.20;99.90
48488;DHT22;34289;48.572;13.378;2023-04-04T04:08:52;1.40;99.90
48488;DHT22;34289;48.572;13.378;2023-04-04T04:11:17;1.40;99.90
48488;DHT22;34289;48.572;13.378;2023-04-04T04:13:43;1.40;99.90
48488;DHT22;34289;48.572;13.378;2023-04-04T04:16:09;1.40;99.90
48488;DHT22;34289;48.572;13.378;2023-04-04T04:18:35;1.40;99.90
48488;DHT22;34289;48.572;13.378;2023-04-04T04:21:00;1.40;99.90
48488;DHT22;34289;48.572;13.378;2023-04-04T04:23:28;1.40;99.90
48488;DHT22;34289;48.572;13.378;2023-04-04T04:25:54;1.30;99.90
48488;DHT22;34289;48.572;13.378;2023-04-04T04:28:21;1.40;99.90
48488;DHT22;34289;48.572;13.378;2023-04-04T04:30:48;1.30;99.90
48488;DHT22;34289;48.572;13.378;2023-04-04T04:33:13;1.40;99.90
48488;DHT22;34289;48.572;13.378;2023-04-04T04:35:39;1.40;99.90
48488;DHT22;34289;48.572;13.378;2023-04-04T04:38:05;1.40;99.90
48488;DHT22;34289;48.572;13.378;2023-04-04T04:40:37;1.40;99.90
48488;DHT22;34289;48.572;13.378;2023-04-04T04:43:02;1.40;99.90
48488;DHT22;34289;48.572;13.378;2023-04-04T04:45:28;1.40;99.90
48488;DHT22;34289;48.572;13.378;2023-04-04T04:47:53;1.40;99.90
48488;DHT22;34289;48.572;13.378;2023-04-04T04:50:19;3.70;99.90
48488;DHT22;34289;48.572;13.378;2023-04-04T04:52:45;1.50;99.90
48488;DHT22;34289;48.572;13.378;2023-04-04T04:55:11;1.30;99.90
48488;DHT22;34289;48.572;13.378;2023-04-04T04:57:37;1.40;99.90
48488;DHT22;34289;48.572;13.378;2023-04-04T05:00:03;1.40;99.90
48488;DHT22;34289;48.572;13.378;2023-04-04T05:02:29;1.50;99.90
48488;DHT22;34289;48.572;13.378;2023-04-04T05:04:55;1.50;99.90
48488;DHT22;34289;48.572;13.378;2023-04-04T05:07:21;1.50;99.90
48488;DHT22;34289;48.572;13.378;2023-04-04T05:09:47;1.40;99.90
48488;DHT22;34289;48.572;13.378;2023-04-04T05:12:13;1.40;99.90
48488;DHT22;34289;48.572;13.378;2023-04-04T05:14:39;1.40;99.90
48488;DHT22;34289;48.572;13.378;2023-04-04T05:17:04;1.40;99.90
48488;DHT22;34289;48.572;13.378;2023-04-04T05:19:30;1.30;99.90
48488;DHT22;34289;48.572;13.378;2023-04-04T05:21:56;1.30;99.90
48488;DHT22;34289;48.572;13.378;2023-04-04T05:24:24;2.60;99.90
48488;DHT22;34289;48.572;13.378;2023-04-04T05:26:50;1.50;99.90
48488;DHT22;34289;48.572;13.378;2023-04-04T05:29:16;1.50;99.90
48488;DHT22;34289;48.572;13.378;2023-04-04T05:31:41;1.60;99.90
48488;DHT22;34289;48.572;13.378;2023-04-04T05:34:07;3.40;99.90
48488;DHT22;34289;48.572;13.378;2023-04-04T05:36:36;1.70;99.90
48488;DHT22;34289;48.572;13.378;2023-04-04T05:39:02;1.80;99.90
48488;DHT22;34289;48.572;13.378;2023-04-04T05:41:32;1.90;99.90
48488;DHT22;34289;48.572;13.378;2023-04-04T05:43:58;2.00;99.90
48488;DHT22;34289;48.572;13.378;2023-04-04T05:46:23;2.00;99.90
48488;DHT22;34289;48.572;13.378;2023-04-04T05:48:50;2.00;99.90
48488;DHT22;34289;48.572;13.378;2023-04-04T05:51:16;4.40;99.90
48488;DHT22;34289;48.572;13.378;2023-04-04T05:53:42;1.90;99.90
48488;DHT22;34289;48.572;13.378;2023-04-04T05:56:10;4.70;99.90
48488;DHT22;34289;48.572;13.378;2023-04-04T05:58:36;2.00;99.90
48488;DHT22;34289;48.572;13.378;2023-04-04T06:01:08;3.40;99.90
48488;DHT22;34289;48.572;13.378;2023-04-04T06:03:34;2.00;99.90
48488;DHT22;34289;48.572;13.378;2023-04-04T06:06:03;3.00;99.90
48488;DHT22;34289;48.572;13.378;2023-04-04T06:08:30;2.00;99.90
48488;DHT22;34289;48.572;13.378;2023-04-04T06:10:56;2.10;99.90
48488;DHT22;34289;48.572;13.378;2023-04-04T06:13:22;2.30;99.90
48488;DHT22;34289;48.572;13.378;2023-04-04T06:15:47;2.40;99.90
48488;DHT22;34289;48.572;13.378;2023-04-04T06:18:13;2.80;99.90
48488;DHT22;34289;48.572;13.378;2023-04-04T06:20:38;5.50;99.90
48488;DHT22;34289;48.572;13.378;2023-04-04T06:23:04;4.30;99.90
48488;DHT22;34289;48.572;13.378;2023-04-04T06:25:30;3.20;99.90
48488;DHT22;34289;48.572;13.378;2023-04-04T06:27:56;6.40;99.90
48488;DHT22;34289;48.572;13.378;2023-04-04T06:30:23;5.50;99.90
48488;DHT22;34289;48.572;13.378;2023-04-04T06:32:49;6.40;99.90
48488;DHT22;34289;48.572;13.378;2023-04-04T06:35:14;4.20;99.90
48488;DHT22;34289;48.572;13.378;2023-04-04T06:37:40;4.20;99.90
48488;DHT22;34289;48.572;13.378;2023-04-04T06:40:06;6.80;99.90
48488;DHT22;34289;48.572;13.378;2023-04-04T06:42:32;4.20;99.90
48488;DHT22;34289;48.572;13.378;2023-04-04T06:44:58;5.80;99.90
48488;DHT22;34289;48.572;13.378;2023-04-04T06:47:23;4.80;99.90
48488;DHT22;34289;48.572;13.378;2023-04-04T06:49:49;5.30;99.90
48488;DHT22;34289;48.572;13.378;2023-04-04T06:52:15;4.20;99.90
48488;DHT22;34289;48.572;13.378;2023-04-04T06:54:40;4.20;99.90
48488;DHT22;34289;48.572;13.378;2023-04-04T06:57:06;4.90;99.90
48488;DHT22;34289;48.572;13.378;2023-04-04T06:59:32;5.50;99.90
48488;DHT22;34289;48.572;13.378;2023-04-04T07:01:57;5.00;99.90
48488;DHT22;34289;48.572;13.378;2023-04-04T07:04:23;4.30;99.70
48488;DHT22;34289;48.572;13.378;2023-04-04T07:06:50;4.40;99.90
48488;DHT22;34289;48.572;13.378;2023-04-04T07:09:15;5.60;99.90
48488;DHT22;34289;48.572;13.378;2023-04-04T07:11:41;4.50;99.90
48488;DHT22;34289;48.572;13.378;2023-04-04T07:14:07;6.00;99.90
48488;DHT22;34289;48.572;13.378;2023-04-04T07:16:32;4.40;99.90
48488;DHT22;34289;48.572;13.378;2023-04-04T07:18:58;5.30;99.90
48488;DHT22;34289;48.572;13.378;2023-04-04T07:21:23;5.90;99.90
48488;DHT22;34289;48.572;13.378;2023-04-04T07:23:49;4.30;99.20
48488;DHT22;34289;48.572;13.378;2023-04-04T07:26:15;6.20;98.90
48488;DHT22;34289;48.572;13.378;2023-04-04T07:28:41;4.10;98.70
48488;DHT22;34289;48.572;13.378;2023-04-04T07:31:06;6.60;99.80
48488;DHT22;34289;48.572;13.378;2023-04-04T07:33:32;4.30;99.50
48488;DHT22;34289;48.572;13.378;2023-04-04T07:36:00;5.60;99.90
48488;DHT22;34289;48.572;13.378;2023-04-04T07:38:26;4.20;99.70
48488;DHT22;34289;48.572;13.378;2023-04-04T07:40:52;6.30;99.90
48488;DHT22;34289;48.572;13.378;2023-04-04T07:43:17;6.20;99.90
48488;DHT22;34289;48.572;13.378;2023-04-04T07:45:43;4.20;98.20
48488;DHT22;34289;48.572;13.378;2023-04-04T07:48:09;4.00;98.60
48488;DHT22;34289;48.572;13.378;2023-04-04T07:50:34;5.70;98.70
48488;DHT22;34289;48.572;13.378;2023-04-04T07:53:00;6.30;98.00
48488;DHT22;34289;48.572;13.378;2023-04-04T07:55:26;4.00;96.60
48488;DHT22;34289;48.572;13.378;2023-04-04T07:57:52;5.30;97.70
48488;DHT22;34289;48.572;13.378;2023-04-04T08:00:19;6.50;98.80
48488;DHT22;34289;48.572;13.378;2023-04-04T08:02:55;4.00;96.60
48488;DHT22;34289;48.572;13.378;2023-04-04T08:05:23;5.10;96.30
48488;DHT22;34289;48.572;13.378;2023-04-04T08:07:48;5.20;96.40
48488;DHT22;34289;48.572;13.378;2023-04-04T08:10:15;6.00;95.60
48488;DHT22;34289;48.572;13.378;2023-04-04T08:12:42;5.30;96.90
48488;DHT22;34289;48.572;13.378;2023-04-04T08:15:09;4.90;95.90
48488;DHT22;34289;48.572;13.378;2023-04-04T08:17:35;4.40;96.10
48488;DHT22;34289;48.572;13.378;2023-04-04T08:20:02;7.60;95.80
48488;DHT22;34289;48.572;13.378;2023-04-04T08:22:28;4.90;94.20
48488;DHT22;34289;48.572;13.378;2023-04-04T08:24:54;6.90;95.00
48488;DHT22;34289;48.572;13.378;2023-04-04T08:27:20;5.10;94.70
48488;DHT22;34289;48.572;13.378;2023-04-04T08:29:46;4.60;94.50
48488;DHT22;34289;48.572;13.378;2023-04-04T08:32:13;4.40;93.80
48488;DHT22;34289;48.572;13.378;2023-04-04T08:34:39;6.10;95.20
48488;DHT22;34289;48.572;13.378;2023-04-04T08:37:06;6.20;94.20
48488;DHT22;34289;48.572;13.378;2023-04-04T08:39:31;5.70;94.10
48488;DHT22;34289;48.572;13.378;2023-04-04T08:42:04;5.40;93.20
48488;DHT22;34289;48.572;13.378;2023-04-04T08:44:32;5.10;91.20
48488;DHT22;34289;48.572;13.378;2023-04-04T08:47:00;4.90;93.10
48488;DHT22;34289;48.572;13.378;2023-04-04T08:49:29;5.10;94.10
48488;DHT22;34289;48.572;13.378;2023-04-04T08:51:57;5.40;92.80
48488;DHT22;34289;48.572;13.378;2023-04-04T08:54:24;5.40;91.40
48488;DHT22;34289;48.572;13.378;2023-04-04T08:56:51;6.30;92.10
48488;DHT22;34289;48.572;13.378;2023-04-04T08:59:16;8.10;91.70
48488;DHT22;34289;48.572;13.378;2023-04-04T09:01:43;7.30;91.70
48488;DHT22;34289;48.572;13.378;2023-04-04T09:04:09;8.00;91.70
48488;DHT22;34289;48.572;13.378;2023-04-04T09:06:36;7.40;92.30
48488;DHT22;34289;48.572;13.378;2023-04-04T09:09:02;5.40;91.80
48488;DHT22;34289;48.572;13.378;2023-04-04T09:11:30;5.50;91.40
48488;DHT22;34289;48.572;13.378;2023-04-04T09:13:56;5.50;90.40
48488;DHT22;34289;48.572;13.378;2023-04-04T09:16:23;6.50;92.20
48488;DHT22;34289;48.572;13.378;2023-04-04T09:18:49;5.50;91.50
48488;DHT22;34289;48.572;13.378;2023-04-04T09:21:14;5.50;91.10
48488;DHT22;34289;48.572;13.378;2023-04-04T09:23:41;7.70;91.10
48488;DHT22;34289;48.572;13.378;2023-04-04T09:26:08;6.50;91.40
48488;DHT22;34289;48.572;13.378;2023-04-04T09:28:34;4.90;91.60
48488;DHT22;34289;48.572;13.378;2023-04-04T09:31:01;5.70;92.50
48488;DHT22;34289;48.572;13.378;2023-04-04T09:33:28;6.10;93.10
48488;DHT22;34289;48.572;13.378;2023-04-04T09:36:01;7.80;93.70
48488;DHT22;34289;48.572;13.378;2023-04-04T09:38:28;5.90;90.60
48488;DHT22;34289;48.572;13.378;2023-04-04T09:40:55;7.00;91.70
48488;DHT22;34289;48.572;13.378;2023-04-04T09:43:22;5.40;90.40
48488;DHT22;34289;48.572;13.378;2023-04-04T09:45:48;7.10;91.30
48488;DHT22;34289;48.572;13.378;2023-04-04T09:48:31;6.60;90.40
48488;DHT22;34289;48.572;13.378;2023-04-04T09:50:57;6.00;90.60
48488;DHT22;34289;48.572;13.378;2023-04-04T09:53:24;6.60;89.60
48488;DHT22;34289;48.572;13.378;2023-04-04T09:55:50;7.30;88.40
48488;DHT22;34289;48.572;13.378;2023-04-04T09:58:24;7.50;86.60
48488;DHT22;34289;48.572;13.378;2023-04-04T10:00:53;7.50;89.60
48488;DHT22;34289;48.572;13.378;2023-04-04T10:03:24;7.30;90.80
48488;DHT22;34289;48.572;13.378;2023-04-04T10:06:03;7.20;88.40
48488;DHT22;34289;48.572;13.378;2023-04-04T10:08:29;7.40;88.10
48488;DHT22;34289;48.572;13.378;2023-04-04T10:11:00;7.70;90.20
48488;DHT22;34289;48.572;13.378;2023-04-04T10:13:28;7.90;90.00
48488;DHT22;34289;48.572;13.378;2023-04-04T10:15:56;9.00;89.00
48488;DHT22;34289;48.572;13.378;2023-04-04T10:18:32;8.30;89.80
48488;DHT22;34289;48.572;13.378;2023-04-04T10:21:03;8.10;87.00
48488;DHT22;34289;48.572;13.378;2023-04-04T10:23:30;8.10;89.70
48488;DHT22;34289;48.572;13.378;2023-04-04T10:25:57;8.00;88.20
48488;DHT22;34289;48.572;13.378;2023-04-04T10:28:23;8.50;88.60
48488;DHT22;34289;48.572;13.378;2023-04-04T10:31:16;8.10;86.00
48488;DHT22;34289;48.572;13.378;2023-04-04T10:33:45;8.10;87.40
48488;DHT22;34289;48.572;13.378;2023-04-04T10:36:15;8.00;90.20
48488;DHT22;34289;48.572;13.378;2023-04-04T10:39:07;8.20;90.00
48488;DHT22;34289;48.572;13.378;2023-04-04T10:41:37;8.00;88.90
48488;DHT22;34289;48.572;13.378;2023-04-04T10:44:33;8.50;91.70
48488;DHT22;34289;48.572;13.378;2023-04-04T10:49:41;8.20;90.40
48488;DHT22;34289;48.572;13.378;2023-04-04T10:52:08;8.20;90.50
48488;DHT22;34289;48.572;13.378;2023-04-04T10:54:35;8.20;85.90
48488;DHT22;34289;48.572;13.378;2023-04-04T10:57:01;7.30;81.80
48488;DHT22;34289;48.572;13.378;2023-04-04T10:59:28;8.90;85.50
48488;DHT22;34289;48.572;13.378;2023-04-04T11:01:56;8.70;86.00
48488;DHT22;34289;48.572;13.378;2023-04-04T11:04:33;9.10;86.10
48488;DHT22;34289;48.572;13.378;2023-04-04T11:07:12;8.90;88.90
48488;DHT22;34289;48.572;13.378;2023-04-04T11:09:58;8.80;85.80
48488;DHT22;34289;48.572;13.378;2023-04-04T11:12:27;8.00;80.20
48488;DHT22;34289;48.572;13.378;2023-04-04T11:15:08;7.90;86.90
48488;DHT22;34289;48.572;13.378;2023-04-04T11:17:53;7.90;89.20
48488;DHT22;34289;48.572;13.378;2023-04-04T11:20:27;7.90;89.30
48488;DHT22;34289;48.572;13.378;2023-04-04T11:23:07;7.80;89.30
48488;DHT22;34289;48.572;13.378;2023-04-04T11:25:35;7.90;88.30
48488;DHT22;34289;48.572;13.378;2023-04-04T11:28:08;7.90;89.30
48488;DHT22;34289;48.572;13.378;2023-04-04T11:30:39;8.20;88.50
48488;DHT22;34289;48.572;13.378;2023-04-04T11:33:10;8.40;86.10
48488;DHT22;34289;48.572;13.378;2023-04-04T11:35:43;8.10;85.60
48488;DHT22;34289;48.572;13.378;2023-04-04T11:38:14;8.60;86.00
48488;DHT22;34289;48.572;13.378;2023-04-04T11:40:41;8.80;83.70
48488;DHT22;34289;48.572;13.378;2023-04-04T11:43:11;9.00;85.60
48488;DHT22;34289;48.572;13.378;2023-04-04T11:45:42;8.90;85.60
48488;DHT22;34289;48.572;13.378;2023-04-04T11:48:08;10.10;84.20
48488;DHT22;34289;48.572;13.378;2023-04-04T11:50:45;8.70;82.60
48488;DHT22;34289;48.572;13.378;2023-04-04T11:53:14;8.90;82.90
48488;DHT22;34289;48.572;13.378;2023-04-04T11:55:47;8.90;86.00
48488;DHT22;34289;48.572;13.378;2023-04-04T11:58:12;8.70;86.60
48488;DHT22;34289;48.572;13.378;2023-04-04T12:00:40;7.90;80.70
48488;DHT22;34289;48.572;13.378;2023-04-04T12:03:08;8.40;84.30
48488;DHT22;34289;48.572;13.378;2023-04-04T12:05:39;8.00;84.60
48488;DHT22;34289;48.572;13.378;2023-04-04T12:08:07;7.50;86.00
48488;DHT22;34289;48.572;13.378;2023-04-04T12:10:37;8.00;81.70
48488;DHT22;34289;48.572;13.378;2023-04-04T12:13:07;8.10;82.80
48488;DHT22;34289;48.572;13.378;2023-04-04T12:15:35;8.60;87.30
48488;DHT22;34289;48.572;13.378;2023-04-04T12:18:01;9.00;90.80
48488;DHT22;34289;48.572;13.378;2023-04-04T12:20:27;8.50;81.90
48488;DHT22;34289;48.572;13.378;2023-04-04T12:22:55;8.60;83.70
48488;DHT22;34289;48.572;13.378;2023-04-04T12:25:22;8.70;84.70
48488;DHT22;34289;48.572;13.378;2023-04-04T12:27:53;9.20;87.10
48488;DHT22;34289;48.572;13.378;2023-04-04T12:30:19;8.30;79.80
48488;DHT22;34289;48.572;13.378;2023-04-04T12:32:46;8.20;82.00
48488;DHT22;34289;48.572;13.378;2023-04-04T12:35:13;9.30;81.40
48488;DHT22;34289;48.572;13.378;2023-04-04T12:37:57;8.10;85.90
48488;DHT22;34289;48.572;13.378;2023-04-04T12:40:23;8.50;80.40
48488;DHT22;34289;48.572;13.378;2023-04-04T12:42:48;8.70;86.40
48488;DHT22;34289;48.572;13.378;2023-04-04T12:45:14;8.30;87.00
48488;DHT22;34289;48.572;13.378;2023-04-04T12:47:53;8.60;85.20
48488;DHT22;34289;48.572;13.378;2023-04-04T12:50:25;8.70;81.00
48488;DHT22;34289;48.572;13.378;2023-04-04T12:52:52;7.90;83.10
48488;DHT22;34289;48.572;13.378;2023-04-04T12:55:22;7.50;80.70
48488;DHT22;34289;48.572;13.378;2023-04-04T12:57:48;7.90;81.50
48488;DHT22;34289;48.572;13.378;2023-04-04T13:00:14;6.90;80.90
48488;DHT22;34289;48.572;13.378;2023-04-04T13:02:45;6.90;81.80
48488;DHT22;34289;48.572;13.378;2023-04-04T13:05:14;7.10;82.00
48488;DHT22;34289;48.572;13.378;2023-04-04T13:07:41;8.00;80.70
48488;DHT22;34289;48.572;13.378;2023-04-04T13:10:11;8.20;87.90
48488;DHT22;34289;48.572;13.378;2023-04-04T13:12:58;7.20;83.20
48488;DHT22;34289;48.572;13.378;2023-04-04T13:15:49;6.80;84.50
48488;DHT22;34289;48.572;13.378;2023-04-04T13:18:18;6.60;84.00
48488;DHT22;34289;48.572;13.378;2023-04-04T13:20:46;6.60;82.90
48488;DHT22;34289;48.572;13.378;2023-04-04T13:23:13;8.60;83.00
48488;DHT22;34289;48.572;13.378;2023-04-04T13:25:38;8.50;83.00
48488;DHT22;34289;48.572;13.378;2023-04-04T13:28:04;7.10;81.20
48488;DHT22;34289;48.572;13.378;2023-04-04T13:30:30;7.50;84.30
48488;DHT22;34289;48.572;13.378;2023-04-04T13:32:56;7.90;85.10
48488;DHT22;34289;48.572;13.378;2023-04-04T13:35:22;7.70;84.90
48488;DHT22;34289;48.572;13.378;2023-04-04T13:37:48;7.80;80.70
48488;DHT22;34289;48.572;13.378;2023-04-04T13:40:13;8.20;80.40
48488;DHT22;34289;48.572;13.378;2023-04-04T13:42:39;8.00;82.70
48488;DHT22;34289;48.572;13.378;2023-04-04T13:45:05;8.10;79.60
48488;DHT22;34289;48.572;13.378;2023-04-04T13:47:31;7.90;78.60
48488;DHT22;34289;48.572;13.378;2023-04-04T13:49:57;7.60;82.00
48488;DHT22;34289;48.572;13.378;2023-04-04T13:52:22;7.70;82.30
48488;DHT22;34289;48.572;13.378;2023-04-04T13:54:49;8.20;79.30
48488;DHT22;34289;48.572;13.378;2023-04-04T13:57:14;9.50;82.40
48488;DHT22;34289;48.572;13.378;2023-04-04T13:59:40;7.70;81.10
48488;DHT22;34289;48.572;13.378;2023-04-04T14:02:06;8.00;82.70
48488;DHT22;34289;48.572;13.378;2023-04-04T14:04:31;8.00;84.70
48488;DHT22;34289;48.572;13.378;2023-04-04T14:06:57;7.90;87.40
48488;DHT22;34289;48.572;13.378;2023-04-04T14:09:23;8.20;86.70
48488;DHT22;34289;48.572;13.378;2023-04-04T14:11:48;8.20;84.00
48488;DHT22;34289;48.572;13.378;2023-04-04T14:14:14;8.50;86.30
48488;DHT22;34289;48.572;13.378;2023-04-04T14:16:40;8.70;85.20
48488;DHT22;34289;48.572;13.378;2023-04-04T14:19:06;8.90;84.50
48488;DHT22;34289;48.572;13.378;2023-04-04T14:21:31;10.00;84.80
48488;DHT22;34289;48.572;13.378;2023-04-04T14:23:57;9.00;82.70
48488;DHT22;34289;48.572;13.378;2023-04-04T14:26:23;8.70;82.50
48488;DHT22;34289;48.572;13.378;2023-04-04T14:28:49;9.20;80.40
48488;DHT22;34289;48.572;13.378;2023-04-04T14:31:14;7.80;81.30
48488;DHT22;34289;48.572;13.378;2023-04-04T14:33:40;7.80;84.60
48488;DHT22;34289;48.572;13.378;2023-04-04T14:36:06;8.80;80.80
48488;DHT22;34289;48.572;13.378;2023-04-04T14:38:31;7.50;82.30
48488;DHT22;34289;48.572;13.378;2023-04-04T14:40:59;8.90;82.80
48488;DHT22;34289;48.572;13.378;2023-04-04T14:43:25;8.60;81.80
48488;DHT22;34289;48.572;13.378;2023-04-04T14:45:50;8.70;82.40
48488;DHT22;34289;48.572;13.378;2023-04-04T14:48:16;10.10;82.00
48488;DHT22;34289;48.572;13.378;2023-04-04T14:50:42;8.50;80.40
48488;DHT22;34289;48.572;13.378;2023-04-04T14:53:08;8.40;80.60
48488;DHT22;34289;48.572;13.378;2023-04-04T14:55:34;8.50;81.40
48488;DHT22;34289;48.572;13.378;2023-04-04T14:57:59;8.80;84.30
48488;DHT22;34289;48.572;13.378;2023-04-04T15:00:25;8.60;81.40
48488;DHT22;34289;48.572;13.378;2023-04-04T15:02:51;8.50;80.20
48488;DHT22;34289;48.572;13.378;2023-04-04T15:05:17;8.60;83.00
48488;DHT22;34289;48.572;13.378;2023-04-04T15:07:45;8.90;80.50
48488;DHT22;34289;48.572;13.378;2023-04-04T15:10:11;8.30;80.10
48488;DHT22;34289;48.572;13.378;2023-04-04T15:12:37;9.90;84.70
48488;DHT22;34289;48.572;13.378;2023-04-04T15:15:03;8.20;81.80
48488;DHT22;34289;48.572;13.378;2023-04-04T15:17:28;8.30;80.60
48488;DHT22;34289;48.572;13.378;2023-04-04T15:19:54;8.40;80.80
48488;DHT22;34289;48.572;13.378;2023-04-04T15:22:20;8.30;81.30
48488;DHT22;34289;48.572;13.378;2023-04-04T15:24:45;9.80;80.40
48488;DHT22;34289;48.572;13.378;2023-04-04T15:27:11;9.00;82.70
48488;DHT22;34289;48.572;13.378;2023-04-04T15:29:39;8.10;81.70
48488;DHT22;34289;48.572;13.378;2023-04-04T15:32:05;8.30;82.80
48488;DHT22;34289;48.572;13.378;2023-04-04T15:34:31;8.60;82.50
48488;DHT22;34289;48.572;13.378;2023-04-04T15:36:56;8.80;81.70
48488;DHT22;34289;48.572;13.378;2023-04-04T15:39:23;9.60;80.70